sensor_id;sensor_type;location;lat;lon;timestamp;pressure;altitude;pressure_sealevel;temperature;humidity
63090;BME280;49174;43.198;27.824;2023-06-14T00:01:25;101191.69;;;16.78;100.00
63090;BME280;49174;43.198;27.824;2023-06-14T00:03:51;101202.50;;;16.84;100.00
63090;BME280;49174;43.198;27.824;2023-06-14T00:06:17;101201.03;;;16.88;100.00
63090;BME280;49174;43.198;27.824;2023-06-14T00:08:43;101201.03;;;16.88;100.00
63090;BME280;49174;43.198;27.824;2023-06-14T00:11:08;101196.97;;;16.91;100.00
63090;BME280;49174;43.198;27.824;2023-06-14T00:13:34;101198.34;;;17.00;100.00
63090;BME280;49174;43.198;27.824;2023-06-14T00:15:59;101198.09;;;17.02;100.00
63090;BME280;49174;43.198;27.824;2023-06-14T00:18:25;101193.94;;;16.99;100.00
63090;BME280;49174;43.198;27.824;2023-06-14T00:20:55;101189.72;;;17.03;100.00
63090;BME280;49174;43.198;27.824;2023-06-14T00:23:21;101197.28;;;17.01;100.00
63090;BME280;49174;43.198;27.824;2023-06-14T00:25:47;101191.47;;;16.97;100.00
63090;BME280;49174;43.198;27.824;2023-06-14T00:28:13;101200.16;;;17.06;100.00
63090;BME280;49174;43.198;27.824;2023-06-14T00:30:38;101199.34;;;17.06;100.00
63090;BME280;49174;43.198;27.824;2023-06-14T00:33:04;101196.16;;;17.09;99.84
63090;BME280;49174;43.198;27.824;2023-06-14T00:35:30;101196.75;;;17.11;100.00
63090;BME280;49174;43.198;27.824;2023-06-14T00:37:55;101201.97;;;17.12;100.00
63090;BME280;49174;43.198;27.824;2023-06-14T00:40:21;101197.03;;;17.21;100.00
63090;BME280;49174;43.198;27.824;2023-06-14T00:42:47;101198.31;;;17.18;100.00
63090;BME280;49174;43.198;27.824;2023-06-14T00:45:12;101197.03;;;17.21;100.00
63090;BME280;49174;43.198;27.824;2023-06-14T00:47:41;101197.72;;;17.16;100.00
63090;BME280;49174;43.198;27.824;2023-06-14T00:50:09;101195.22;;;17.15;100.00
63090;BME280;49174;43.198;27.824;2023-06-14T00:52:35;101197.03;;;17.21;100.00
63090;BME280;49174;43.198;27.824;2023-06-14T00:55:01;101198.25;;;17.25;100.00
63090;BME280;49174;43.198;27.824;2023-06-14T00:57:27;101192.31;;;17.28;100.00
63090;BME280;49174;43.198;27.824;2023-06-14T00:59:55;101192.47;;;17.33;100.00
63090;BME280;49174;43.198;27.824;2023-06-14T01:02:21;101188.00;;;17.39;100.00
63090;BME280;49174;43.198;27.824;2023-06-14T01:04:48;101195.34;;;17.38;99.47
63090;BME280;49174;43.198;27.824;2023-06-14T01:10:12;101194.75;;;17.36;99.34
63090;BME280;49174;43.198;27.824;2023-06-14T01:15:31;101182.59;;;17.32;98.35
63090;BME280;49174;43.198;27.824;2023-06-14T01:17:57;101186.03;;;17.28;98.58
63090;BME280;49174;43.198;27.824;2023-06-14T01:20:29;101185.97;;;17.16;98.26
63090;BME280;49174;43.198;27.824;2023-06-14T01:22:56;101189.91;;;17.20;98.15
63090;BME280;49174;43.198;27.824;2023-06-14T01:25:22;101176.50;;;17.18;98.87
63090;BME280;49174;43.198;27.824;2023-06-14T01:27:53;101178.19;;;17.19;99.04
63090;BME280;49174;43.198;27.824;2023-06-14T01:30:22;101188.13;;;17.14;98.00
63090;BME280;49174;43.198;27.824;2023-06-14T01:32:49;101194.34;;;17.03;98.85
63090;BME280;49174;43.198;27.824;2023-06-14T01:35:16;101186.84;;;16.98;98.52
63090;BME280;49174;43.198;27.824;2023-06-14T01:37:43;101185.09;;;17.04;99.06
63090;BME280;49174;43.198;27.824;2023-06-14T01:40:10;101173.97;;;17.05;99.49
63090;BME280;49174;43.198;27.824;2023-06-14T01:42:37;101185.09;;;17.04;99.71
63090;BME280;49174;43.198;27.824;2023-06-14T01:45:07;101182.69;;;16.95;99.05
63090;BME280;49174;43.198;27.824;2023-06-14T01:47:34;101184.94;;;16.98;100.00
63090;BME280;49174;43.198;27.824;2023-06-14T01:50:03;101190.19;;;17.00;100.00
63090;BME280;49174;43.198;27.824;2023-06-14T01:52:29;101182.81;;;17.01;100.00
63090;BME280;49174;43.198;27.824;2023-06-14T01:54:55;101186.00;;;16.97;100.00
63090;BME280;49174;43.198;27.824;2023-06-14T01:57:21;101186.94;;;16.91;100.00
63090;BME280;49174;43.198;27.824;2023-06-14T01:59:47;101186.94;;;16.91;100.00
63090;BME280;49174;43.198;27.824;2023-06-14T02:02:14;101198.28;;;16.88;100.00
63090;BME280;49174;43.198;27.824;2023-06-14T02:04:41;101188.28;;;16.82;100.00
63090;BME280;49174;43.198;27.824;2023-06-14T02:07:06;101185.59;;;16.75;100.00
63090;BME280;49174;43.198;27.824;2023-06-14T02:09:33;101191.50;;;16.72;100.00
63090;BME280;49174;43.198;27.824;2023-06-14T02:11:59;101191.50;;;16.72;100.00
63090;BME280;49174;43.198;27.824;2023-06-14T02:14:24;101187.50;;;16.75;100.00
63090;BME280;49174;43.198;27.824;2023-06-14T02:16:51;101195.69;;;16.75;100.00
63090;BME280;49174;43.198;27.824;2023-06-14T02:19:19;101194.69;;;16.69;100.00
63090;BME280;49174;43.198;27.824;2023-06-14T02:21:45;101193.47;;;16.65;100.00
63090;BME280;49174;43.198;27.824;2023-06-14T02:24:10;101199.81;;;16.59;100.00
63090;BME280;49174;43.198;27.824;2023-06-14T02:26:36;101193.00;;;16.50;100.00
63090;BME280;49174;43.198;27.824;2023-06-14T02:29:06;101204.56;;;16.45;100.00
63090;BME280;49174;43.198;27.824;2023-06-14T02:31:35;101198.66;;;16.48;100.00
63090;BME280;49174;43.198;27.824;2023-06-14T02:34:00;101202.47;;;16.47;100.00
63090;BME280;49174;43.198;27.824;2023-06-14T02:36:26;101208.13;;;16.46;100.00
63090;BME280;49174;43.198;27.824;2023-06-14T02:38:52;101213.41;;;16.41;100.00
63090;BME280;49174;43.198;27.824;2023-06-14T02:41:19;101210.91;;;16.39;100.00
63090;BME280;49174;43.198;27.824;2023-06-14T02:43:45;101201.91;;;16.39;100.00
63090;BME280;49174;43.198;27.824;2023-06-14T02:46:10;101210.09;;;16.39;100.00
63090;BME280;49174;43.198;27.824;2023-06-14T02:48:36;101206.97;;;16.35;100.00
63090;BME280;49174;43.198;27.824;2023-06-14T02:51:02;101215.56;;;16.32;100.00
63090;BME280;49174;43.198;27.824;2023-06-14T02:53:29;101215.81;;;16.30;100.00
63090;BME280;49174;43.198;27.824;2023-06-14T02:55:55;101213.53;;;16.27;100.00
63090;BME280;49174;43.198;27.824;2023-06-14T02:58:20;101218.16;;;16.27;100.00
63090;BME280;49174;43.198;27.824;2023-06-14T03:00:47;101218.31;;;16.32;100.00
63090;BME280;49174;43.198;27.824;2023-06-14T03:03:12;101213.94;;;16.31;100.00
63090;BME280;49174;43.198;27.824;2023-06-14T03:05:46;101212.84;;;16.32;100.00
63090;BME280;49174;43.198;27.824;2023-06-14T03:08:13;101209.75;;;16.28;100.00
63090;BME280;49174;43.198;27.824;2023-06-14T03:10:48;101224.81;;;16.31;100.00
63090;BME280;49174;43.198;27.824;2023-06-14T03:13:15;101219.56;;;16.29;100.00
63090;BME280;49174;43.198;27.824;2023-06-14T03:15:44;101223.16;;;16.30;100.00
63090;BME280;49174;43.198;27.824;2023-06-14T03:29:19;101229.16;;;16.82;100.00
63090;BME280;49174;43.198;27.824;2023-06-14T03:32:02;101234.88;;;16.74;100.00
63090;BME280;49174;43.198;27.824;2023-06-14T03:34:28;101236.22;;;16.65;100.00
63090;BME280;49174;43.198;27.824;2023-06-14T03:36:54;101235.41;;;16.64;100.00
63090;BME280;49174;43.198;27.824;2023-06-14T03:39:20;101237.50;;;16.62;100.00
63090;BME280;49174;43.198;27.824;2023-06-14T03:41:46;101237.88;;;16.66;100.00
63090;BME280;49174;43.198;27.824;2023-06-14T03:44:14;101236.00;;;16.66;100.00
63090;BME280;49174;43.198;27.824;2023-06-14T03:46:39;101234.94;;;16.67;100.00
63090;BME280;49174;43.198;27.824;2023-06-14T03:49:05;101236.59;;;16.68;100.00
63090;BME280;49174;43.198;27.824;2023-06-14T03:51:31;101236.16;;;16.71;100.00
63090;BME280;49174;43.198;27.824;2023-06-14T03:53:56;101239.06;;;16.77;100.00
63090;BME280;49174;43.198;27.824;2023-06-14T03:56:22;101234.47;;;16.77;100.00
63090;BME280;49174;43.198;27.824;2023-06-14T03:58:47;101235.31;;;16.78;100.00
63090;BME280;49174;43.198;27.824;2023-06-14T04:01:13;101247.44;;;16.75;100.00
63090;BME280;49174;43.198;27.824;2023-06-14T04:03:39;101247.91;;;16.72;100.00
63090;BME280;49174;43.198;27.824;2023-06-14T04:06:05;101244.72;;;16.75;100.00
63090;BME280;49174;43.198;27.824;2023-06-14T04:08:32;101250.59;;;16.79;100.00
63090;BME280;49174;43.198;27.824;2023-06-14T04:10:57;101247.03;;;16.78;100.00
63090;BME280;49174;43.198;27.824;2023-06-14T04:13:23;101237.94;;;16.84;100.00
63090;BME280;49174;43.198;27.824;2023-06-14T04:15:48;101236.19;;;16.90;100.00
63090;BME280;49174;43.198;27.824;2023-06-14T04:18:14;101243.09;;;16.92;100.00
63090;BME280;49174;43.198;27.824;2023-06-14T04:20:39;101241.44;;;16.91;100.00
63090;BME280;49174;43.198;27.824;2023-06-14T04:25:38;101244.00;;;17.05;100.00
63090;BME280;49174;43.198;27.824;2023-06-14T04:28:04;101242.34;;;17.04;100.00
63090;BME280;49174;43.198;27.824;2023-06-14T04:30:30;101246.28;;;17.08;100.00
63090;BME280;49174;43.198;27.824;2023-06-14T04:32:56;101252.13;;;17.11;100.00
63090;BME280;49174;43.198;27.824;2023-06-14T04:35:22;101259.84;;;17.14;100.00
63090;BME280;49174;43.198;27.824;2023-06-14T04:37:52;101259.16;;;17.19;100.00
63090;BME280;49174;43.198;27.824;2023-06-14T04:40:18;101255.13;;;17.22;100.00
63090;BME280;49174;43.198;27.824;2023-06-14T04:42:44;101263.69;;;17.25;100.00
63090;BME280;49174;43.198;27.824;2023-06-14T04:45:11;101273.69;;;17.31;100.00
63090;BME280;49174;43.198;27.824;2023-06-14T04:47:38;101279.91;;;17.38;100.00
63090;BME280;49174;43.198;27.824;2023-06-14T04:50:04;101278.97;;;17.45;100.00
63090;BME280;49174;43.198;27.824;2023-06-14T04:52:29;101281.41;;;17.53;100.00
63090;BME280;49174;43.198;27.824;2023-06-14T04:54:55;101283.91;;;17.66;100.00
63090;BME280;49174;43.198;27.824;2023-06-14T04:57:21;101291.31;;;17.77;98.97
63090;BME280;49174;43.198;27.824;2023-06-14T04:59:48;101287.25;;;17.86;98.63
63090;BME280;49174;43.198;27.824;2023-06-14T05:02:14;101288.59;;;17.96;97.35
63090;BME280;49174;43.198;27.824;2023-06-14T05:04:39;101284.22;;;18.06;98.04
63090;BME280;49174;43.198;27.824;2023-06-14T05:07:07;101286.16;;;18.18;95.40
63090;BME280;49174;43.198;27.824;2023-06-14T05:09:33;101279.75;;;18.24;95.31
63090;BME280;49174;43.198;27.824;2023-06-14T05:11:59;101288.06;;;18.29;94.98
63090;BME280;49174;43.198;27.824;2023-06-14T05:14:26;101286.31;;;18.35;94.56
63090;BME280;49174;43.198;27.824;2023-06-14T05:16:52;101285.13;;;18.42;94.11
63090;BME280;49174;43.198;27.824;2023-06-14T05:19:18;101292.72;;;18.52;93.05
63090;BME280;49174;43.198;27.824;2023-06-14T05:21:44;101288.69;;;18.66;92.01
63090;BME280;49174;43.198;27.824;2023-06-14T05:24:10;101288.38;;;18.74;90.95
63090;BME280;49174;43.198;27.824;2023-06-14T05:26:36;101290.75;;;18.83;91.00
63090;BME280;49174;43.198;27.824;2023-06-14T05:29:02;101293.72;;;18.93;90.75
63090;BME280;49174;43.198;27.824;2023-06-14T05:31:28;101306.56;;;19.04;91.02
63090;BME280;49174;43.198;27.824;2023-06-14T05:33:54;101295.03;;;19.14;91.15
63090;BME280;49174;43.198;27.824;2023-06-14T05:36:20;101306.44;;;19.23;89.08
63090;BME280;49174;43.198;27.824;2023-06-14T05:38:49;101312.09;;;19.33;87.91
63090;BME280;49174;43.198;27.824;2023-06-14T05:41:16;101306.84;;;19.43;88.41
63090;BME280;49174;43.198;27.824;2023-06-14T05:43:41;101310.19;;;19.45;87.45
63090;BME280;49174;43.198;27.824;2023-06-14T05:46:07;101310.63;;;19.54;86.36
63090;BME280;49174;43.198;27.824;2023-06-14T05:48:32;101311.56;;;19.59;86.76
63090;BME280;49174;43.198;27.824;2023-06-14T05:50:58;101313.94;;;19.68;86.29
63090;BME280;49174;43.198;27.824;2023-06-14T05:53:24;101320.47;;;19.78;86.10
63090;BME280;49174;43.198;27.824;2023-06-14T05:55:50;101310.28;;;19.91;84.27
63090;BME280;49174;43.198;27.824;2023-06-14T05:58:18;101325.00;;;20.01;84.95
63090;BME280;49174;43.198;27.824;2023-06-14T06:00:44;101325.03;;;20.18;87.37
63090;BME280;49174;43.198;27.824;2023-06-14T06:03:09;101326.13;;;20.34;85.05
63090;BME280;49174;43.198;27.824;2023-06-14T06:05:36;101326.53;;;20.43;83.02
63090;BME280;49174;43.198;27.824;2023-06-14T06:08:02;101336.22;;;20.62;84.36
63090;BME280;49174;43.198;27.824;2023-06-14T06:10:27;101338.19;;;20.84;82.30
63090;BME280;49174;43.198;27.824;2023-06-14T06:12:53;101330.69;;;20.96;82.34
63090;BME280;49174;43.198;27.824;2023-06-14T06:15:20;101326.59;;;21.15;81.27
63090;BME280;49174;43.198;27.824;2023-06-14T06:17:45;101333.69;;;21.33;78.87
63090;BME280;49174;43.198;27.824;2023-06-14T06:20:11;101326.50;;;21.49;78.42
63090;BME280;49174;43.198;27.824;2023-06-14T06:22:37;101329.69;;;21.63;78.50
63090;BME280;49174;43.198;27.824;2023-06-14T06:25:03;101323.81;;;21.76;77.26
63090;BME280;49174;43.198;27.824;2023-06-14T06:27:29;101326.19;;;21.95;77.33
63090;BME280;49174;43.198;27.824;2023-06-14T06:29:55;101322.56;;;22.16;74.55
63090;BME280;49174;43.198;27.824;2023-06-14T06:32:26;101320.31;;;22.35;74.07
63090;BME280;49174;43.198;27.824;2023-06-14T06:34:56;101323.50;;;22.54;74.33
63090;BME280;49174;43.198;27.824;2023-06-14T06:37:21;101321.47;;;22.77;74.48
63090;BME280;49174;43.198;27.824;2023-06-14T06:39:47;101332.03;;;22.95;72.28
63090;BME280;49174;43.198;27.824;2023-06-14T06:42:13;101321.47;;;23.19;70.88
63090;BME280;49174;43.198;27.824;2023-06-14T06:44:38;101310.03;;;23.48;68.02
63090;BME280;49174;43.198;27.824;2023-06-14T06:47:04;101317.88;;;23.76;67.79
63090;BME280;49174;43.198;27.824;2023-06-14T06:49:30;101317.66;;;24.03;61.80
63090;BME280;49174;43.198;27.824;2023-06-14T06:52:00;101318.22;;;24.26;63.66
63090;BME280;49174;43.198;27.824;2023-06-14T06:54:27;101314.41;;;24.47;63.88
63090;BME280;49174;43.198;27.824;2023-06-14T06:56:53;101319.94;;;24.52;61.97
63090;BME280;49174;43.198;27.824;2023-06-14T06:59:18;101319.66;;;24.69;61.74
63090;BME280;49174;43.198;27.824;2023-06-14T07:01:44;101317.16;;;24.78;60.90
63090;BME280;49174;43.198;27.824;2023-06-14T07:04:10;101310.00;;;24.67;60.38
63090;BME280;49174;43.198;27.824;2023-06-14T07:06:35;101316.06;;;24.59;61.70
63090;BME280;49174;43.198;27.824;2023-06-14T07:09:01;101321.03;;;24.62;60.76
63090;BME280;49174;43.198;27.824;2023-06-14T07:11:27;101312.44;;;24.79;55.93
63090;BME280;49174;43.198;27.824;2023-06-14T07:13:53;101303.28;;;25.04;57.63
63090;BME280;49174;43.198;27.824;2023-06-14T07:16:18;101312.06;;;25.31;59.00
63090;BME280;49174;43.198;27.824;2023-06-14T07:18:44;101310.88;;;25.53;56.13
63090;BME280;49174;43.198;27.824;2023-06-14T07:21:09;101312.72;;;25.73;54.12
63090;BME280;49174;43.198;27.824;2023-06-14T07:23:35;101320.63;;;25.95;56.93
63090;BME280;49174;43.198;27.824;2023-06-14T07:26:00;101313.56;;;26.18;55.42
63090;BME280;49174;43.198;27.824;2023-06-14T07:28:26;101311.97;;;26.41;50.39
63090;BME280;49174;43.198;27.824;2023-06-14T07:30:51;101310.94;;;26.66;53.66
63090;BME280;49174;43.198;27.824;2023-06-14T07:33:17;101308.81;;;26.87;52.68
63090;BME280;49174;43.198;27.824;2023-06-14T07:35:42;101307.19;;;27.10;53.20
63090;BME280;49174;43.198;27.824;2023-06-14T07:38:08;101314.81;;;27.23;47.52
63090;BME280;49174;43.198;27.824;2023-06-14T07:40:34;101309.16;;;27.33;50.75
63090;BME280;49174;43.198;27.824;2023-06-14T07:42:59;101304.56;;;27.24;49.72
63090;BME280;49174;43.198;27.824;2023-06-14T07:45:26;101306.94;;;27.06;50.67
63090;BME280;49174;43.198;27.824;2023-06-14T07:47:52;101313.25;;;27.12;50.16
63090;BME280;49174;43.198;27.824;2023-06-14T07:50:17;101308.72;;;26.97;48.81
63090;BME280;49174;43.198;27.824;2023-06-14T07:52:43;101308.31;;;26.80;50.09
63090;BME280;49174;43.198;27.824;2023-06-14T07:55:09;101300.72;;;26.66;49.69
63090;BME280;49174;43.198;27.824;2023-06-14T07:57:34;101304.97;;;26.83;50.36
63090;BME280;49174;43.198;27.824;2023-06-14T08:00:00;101307.50;;;27.08;49.70
63090;BME280;49174;43.198;27.824;2023-06-14T08:02:26;101299.78;;;27.29;48.77
63090;BME280;49174;43.198;27.824;2023-06-14T08:04:51;101306.94;;;27.54;48.74
63090;BME280;49174;43.198;27.824;2023-06-14T08:07:17;101311.38;;;27.74;48.16
63090;BME280;49174;43.198;27.824;2023-06-14T08:09:43;101310.66;;;27.88;47.44
63090;BME280;49174;43.198;27.824;2023-06-14T08:12:09;101310.34;;;28.08;46.63
63090;BME280;49174;43.198;27.824;2023-06-14T08:14:39;101309.50;;;28.26;46.93
63090;BME280;49174;43.198;27.824;2023-06-14T08:17:05;101313.03;;;28.32;45.90
63090;BME280;49174;43.198;27.824;2023-06-14T08:19:30;101312.56;;;28.25;46.11
63090;BME280;49174;43.198;27.824;2023-06-14T08:21:56;101311.00;;;28.38;46.49
63090;BME280;49174;43.198;27.824;2023-06-14T08:24:22;101303.44;;;28.43;46.36
63090;BME280;49174;43.198;27.824;2023-06-14T08:26:55;101316.19;;;28.25;46.93
63090;BME280;49174;43.198;27.824;2023-06-14T08:29:22;101308.44;;;28.41;45.82
63090;BME280;49174;43.198;27.824;2023-06-14T08:31:48;101320.16;;;28.71;46.22
63090;BME280;49174;43.198;27.824;2023-06-14T08:34:13;101316.84;;;28.69;45.45
63090;BME280;49174;43.198;27.824;2023-06-14T08:36:39;101306.72;;;28.78;45.16
63090;BME280;49174;43.198;27.824;2023-06-14T08:39:04;101307.31;;;28.61;45.00
63090;BME280;49174;43.198;27.824;2023-06-14T08:41:31;101312.63;;;28.39;45.68
63090;BME280;49174;43.198;27.824;2023-06-14T08:43:58;101311.72;;;28.62;45.95
63090;BME280;49174;43.198;27.824;2023-06-14T08:46:25;101317.31;;;28.90;45.50
63090;BME280;49174;43.198;27.824;2023-06-14T08:48:55;101312.41;;;29.01;44.76
63090;BME280;49174;43.198;27.824;2023-06-14T08:51:22;101312.84;;;29.22;44.08
63090;BME280;49174;43.198;27.824;2023-06-14T08:53:54;101311.09;;;29.39;45.34
63090;BME280;49174;43.198;27.824;2023-06-14T08:56:26;101300.78;;;29.54;43.84
63090;BME280;49174;43.198;27.824;2023-06-14T08:58:53;101303.47;;;29.45;42.75
63090;BME280;49174;43.198;27.824;2023-06-14T09:01:20;101300.25;;;29.38;44.02
63090;BME280;49174;43.198;27.824;2023-06-14T09:03:47;101301.72;;;29.22;42.18
63090;BME280;49174;43.198;27.824;2023-06-14T09:06:13;101294.69;;;28.96;43.49
63090;BME280;49174;43.198;27.824;2023-06-14T09:08:43;101286.06;;;28.98;45.34
63090;BME280;49174;43.198;27.824;2023-06-14T09:11:12;101288.16;;;29.20;42.04
63090;BME280;49174;43.198;27.824;2023-06-14T09:13:40;101282.16;;;29.40;43.24
63090;BME280;49174;43.198;27.824;2023-06-14T09:16:08;101276.03;;;29.66;42.96
63090;BME280;49174;43.198;27.824;2023-06-14T09:18:35;101280.88;;;29.97;42.33
63090;BME280;49174;43.198;27.824;2023-06-14T09:21:00;101272.41;;;29.79;43.08
63090;BME280;49174;43.198;27.824;2023-06-14T09:23:26;101275.97;;;29.30;42.52
63090;BME280;49174;43.198;27.824;2023-06-14T09:25:51;101278.66;;;29.07;43.05
63090;BME280;49174;43.198;27.824;2023-06-14T09:28:17;101272.91;;;29.04;42.97
63090;BME280;49174;43.198;27.824;2023-06-14T09:30:42;101286.09;;;29.12;43.27
63090;BME280;49174;43.198;27.824;2023-06-14T09:33:08;101274.97;;;29.26;42.64
63090;BME280;49174;43.198;27.824;2023-06-14T09:35:34;101274.44;;;29.37;42.35
63090;BME280;49174;43.198;27.824;2023-06-14T09:37:59;101273.78;;;29.54;42.89
63090;BME280;49174;43.198;27.824;2023-06-14T09:40:26;101276.78;;;29.44;43.57
63090;BME280;49174;43.198;27.824;2023-06-14T09:42:53;101269.72;;;29.24;43.20
63090;BME280;49174;43.198;27.824;2023-06-14T09:45:19;101277.53;;;29.22;44.58
63090;BME280;49174;43.198;27.824;2023-06-14T09:47:49;101273.63;;;29.23;43.37
63090;BME280;49174;43.198;27.824;2023-06-14T09:50:14;101274.44;;;29.10;42.84
63090;BME280;49174;43.198;27.824;2023-06-14T09:52:43;101270.22;;;29.12;43.56
63090;BME280;49174;43.198;27.824;2023-06-14T09:55:13;101267.25;;;29.36;42.72
63090;BME280;49174;43.198;27.824;2023-06-14T09:57:41;101264.00;;;29.71;43.87
63090;BME280;49174;43.198;27.824;2023-06-14T10:00:09;101264.66;;;30.13;43.51
63090;BME280;49174;43.198;27.824;2023-06-14T10:02:38;101265.81;;;30.34;40.99
63090;BME280;49174;43.198;27.824;2023-06-14T10:05:11;101262.38;;;30.15;40.10
63090;BME280;49174;43.198;27.824;2023-06-14T10:08:00;101269.00;;;30.05;40.48
63090;BME280;49174;43.198;27.824;2023-06-14T10:10:29;101267.84;;;30.06;41.90
63090;BME280;49174;43.198;27.824;2023-06-14T10:12:56;101276.22;;;30.06;44.53
63090;BME280;49174;43.198;27.824;2023-06-14T10:21:16;101262.28;;;28.78;45.18
63090;BME280;49174;43.198;27.824;2023-06-14T10:23:44;101269.78;;;28.91;44.64
63090;BME280;49174;43.198;27.824;2023-06-14T10:26:19;101270.41;;;28.88;43.62
63090;BME280;49174;43.198;27.824;2023-06-14T10:29:00;101276.47;;;28.90;45.22
63090;BME280;49174;43.198;27.824;2023-06-14T10:31:44;101269.72;;;29.24;44.51
63090;BME280;49174;43.198;27.824;2023-06-14T10:34:11;101267.06;;;29.69;42.91
63090;BME280;49174;43.198;27.824;2023-06-14T10:36:40;101266.22;;;29.82;42.29
63090;BME280;49174;43.198;27.824;2023-06-14T10:39:09;101261.41;;;29.97;43.47
63090;BME280;49174;43.198;27.824;2023-06-14T10:41:39;101262.34;;;30.28;40.91
63090;BME280;49174;43.198;27.824;2023-06-14T10:46:40;101272.38;;;30.38;39.74
63090;BME280;49174;43.198;27.824;2023-06-14T10:49:06;101272.66;;;30.14;40.74
63090;BME280;49174;43.198;27.824;2023-06-14T10:51:40;101277.91;;;29.02;42.61
63090;BME280;49174;43.198;27.824;2023-06-14T10:54:21;101283.56;;;28.36;45.09
63090;BME280;49174;43.198;27.824;2023-06-14T10:56:50;101271.38;;;27.99;46.35
63090;BME280;49174;43.198;27.824;2023-06-14T10:59:17;101278.53;;;27.87;47.56
63090;BME280;49174;43.198;27.824;2023-06-14T11:04:17;101272.78;;;27.40;49.56
63090;BME280;49174;43.198;27.824;2023-06-14T11:06:49;101274.13;;;27.18;50.35
63090;BME280;49174;43.198;27.824;2023-06-14T11:12:01;101270.78;;;27.22;50.80
63090;BME280;49174;43.198;27.824;2023-06-14T11:14:30;101273.06;;;27.14;52.62
63090;BME280;49174;43.198;27.824;2023-06-14T11:16:56;101271.06;;;26.96;52.81
63090;BME280;49174;43.198;27.824;2023-06-14T11:19:22;101273.16;;;26.56;54.79
63090;BME280;49174;43.198;27.824;2023-06-14T11:21:48;101280.25;;;26.33;54.05
63090;BME280;49174;43.198;27.824;2023-06-14T11:24:14;101278.50;;;26.42;55.69
63090;BME280;49174;43.198;27.824;2023-06-14T11:26:40;101285.44;;;26.40;55.17
63090;BME280;49174;43.198;27.824;2023-06-14T11:29:06;101277.19;;;26.35;57.83
63090;BME280;49174;43.198;27.824;2023-06-14T11:31:31;101272.53;;;26.30;57.98
63090;BME280;49174;43.198;27.824;2023-06-14T11:33:58;101285.91;;;26.52;57.20
63090;BME280;49174;43.198;27.824;2023-06-14T11:36:31;101280.31;;;26.57;54.88
63090;BME280;49174;43.198;27.824;2023-06-14T11:39:04;101280.50;;;26.37;54.67
63090;BME280;49174;43.198;27.824;2023-06-14T11:41:52;101287.69;;;26.33;56.95
63090;BME280;49174;43.198;27.824;2023-06-14T11:44:17;101286.88;;;26.32;56.73
63090;BME280;49174;43.198;27.824;2023-06-14T11:46:44;101287.19;;;26.30;58.17
63090;BME280;49174;43.198;27.824;2023-06-14T11:49:09;101287.63;;;26.43;57.32
63090;BME280;49174;43.198;27.824;2023-06-14T11:51:35;101291.47;;;26.47;56.33
63090;BME280;49174;43.198;27.824;2023-06-14T11:54:03;101290.38;;;26.43;57.35
63090;BME280;49174;43.198;27.824;2023-06-14T11:56:29;101287.03;;;26.46;56.21
63090;BME280;49174;43.198;27.824;2023-06-14T11:58:55;101290.00;;;26.25;56.46
63090;BME280;49174;43.198;27.824;2023-06-14T12:01:22;101291.56;;;26.02;58.61
63090;BME280;49174;43.198;27.824;2023-06-14T12:03:49;101281.13;;;25.89;57.94
63090;BME280;49174;43.198;27.824;2023-06-14T12:06:15;101281.13;;;25.89;59.18
63090;BME280;49174;43.198;27.824;2023-06-14T12:08:43;101288.34;;;25.80;59.72
63090;BME280;49174;43.198;27.824;2023-06-14T12:11:11;101289.19;;;25.80;59.95
63090;BME280;49174;43.198;27.824;2023-06-14T12:13:41;101290.34;;;25.69;59.93
63090;BME280;49174;43.198;27.824;2023-06-14T12:16:08;101286.50;;;25.65;60.46
63090;BME280;49174;43.198;27.824;2023-06-14T12:18:37;101293.34;;;25.83;60.35
63090;BME280;49174;43.198;27.824;2023-06-14T12:21:07;101283.03;;;25.94;59.51
63090;BME280;49174;43.198;27.824;2023-06-14T12:23:59;101283.66;;;25.80;60.17
63090;BME280;49174;43.198;27.824;2023-06-14T12:26:24;101279.63;;;25.57;62.02
63090;BME280;49174;43.198;27.824;2023-06-14T12:28:51;101276.00;;;25.62;62.48
63090;BME280;49174;43.198;27.824;2023-06-14T12:31:16;101282.03;;;25.74;62.24
63090;BME280;49174;43.198;27.824;2023-06-14T12:33:44;101274.81;;;25.78;62.00
63090;BME280;49174;43.198;27.824;2023-06-14T12:36:11;101270.34;;;25.82;62.37
63090;BME280;49174;43.198;27.824;2023-06-14T12:38:37;101270.41;;;25.77;62.45
63090;BME280;49174;43.198;27.824;2023-06-14T12:41:03;101268.91;;;25.46;62.50
63090;BME280;49174;43.198;27.824;2023-06-14T12:43:29;101270.03;;;25.45;63.33
63090;BME280;49174;43.198;27.824;2023-06-14T12:45:54;101283.03;;;25.39;64.53
63090;BME280;49174;43.198;27.824;2023-06-14T12:48:20;101272.34;;;25.22;64.71
63090;BME280;49174;43.198;27.824;2023-06-14T12:50:46;101268.44;;;25.33;66.12
63090;BME280;49174;43.198;27.824;2023-06-14T12:53:12;101272.78;;;25.45;67.82
63090;BME280;49174;43.198;27.824;2023-06-14T12:55:37;101269.44;;;25.53;69.69
63090;BME280;49174;43.198;27.824;2023-06-14T12:58:02;101260.38;;;25.37;71.67
63090;BME280;49174;43.198;27.824;2023-06-14T13:00:28;101268.09;;;25.40;73.54
63090;BME280;49174;43.198;27.824;2023-06-14T13:02:57;101267.84;;;25.41;74.49
63090;BME280;49174;43.198;27.824;2023-06-14T13:05:23;101269.13;;;25.54;73.96
63090;BME280;49174;43.198;27.824;2023-06-14T13:07:49;101268.84;;;25.61;72.96
63090;BME280;49174;43.198;27.824;2023-06-14T13:10:16;101260.56;;;25.56;73.81